Sal'sk, Russia
Current Conditions -  °F | °C
As of 9:30 AM on Friday 28 Nov 2014 (Local Time) from URRR Reporting Station
Overcast Overcast  
Wind Chill: 15°   Ceiling: 1200
Heat Index: 27°   Visibility: 6mi
Dew Point: 23°   Wind: 13mph
Humidity: 86%   Direction: 90°E
Pressure: 30.33"   Gusts: NA
Location:  46.46°N, 41.54°E
Report Text: URRR 280630Z 09006MPS 9999 BKN012 OVC100 M03/M05 Q1027 04810060NOSIG
Loading
Personal Weather Stations






























Interactive Weather Map New forecast layout! Learn more

10-Day Weather Forecast

Advertisements
Track Severe Weather on mobile